createdAt,value
2023-04-08T00:01:47.878Z,100735.63
2023-04-08T00:04:15.680Z,100789.09
2023-04-08T00:06:44.347Z,100777.91
2023-04-08T00:09:12.762Z,100785.63
2023-04-08T00:11:41.212Z,100777.97
2023-04-08T00:14:07.941Z,100788.47
2023-04-08T00:16:35.812Z,100793.00
2023-04-08T00:19:04.090Z,100779.22
2023-04-08T00:21:32.620Z,100788.03
2023-04-08T00:23:59.285Z,100737.25
2023-04-08T00:26:26.554Z,100787.41
2023-04-08T00:28:54.046Z,100798.06
2023-04-08T00:31:21.868Z,100794.59
2023-04-08T00:33:53.632Z,100799.81
2023-04-08T00:36:20.186Z,100798.13
2023-04-08T00:38:47.481Z,100803.63
2023-04-08T00:41:14.341Z,100796.69
2023-04-08T00:43:42.311Z,100805.50
2023-04-08T00:46:12.386Z,100778.03
2023-04-08T00:48:40.525Z,100762.38
2023-04-08T00:51:11.466Z,100745.00
2023-04-08T00:53:38.834Z,100716.59
2023-04-08T00:56:05.631Z,100778.94
2023-04-08T00:58:32.905Z,100804.00
2023-04-08T01:01:08.896Z,100812.94
2023-04-08T01:03:36.397Z,100809.63
2023-04-08T01:06:47.266Z,100806.41
2023-04-08T01:09:15.509Z,100796.97
2023-04-08T01:11:44.960Z,100804.88
2023-04-08T01:14:16.670Z,100809.31
2023-04-08T01:16:47.572Z,100790.34
2023-04-08T01:19:27.102Z,100797.44
2023-04-08T01:22:01.645Z,100786.25
2023-04-08T01:24:31.186Z,100757.88
2023-04-08T01:26:59.303Z,100812.47
2023-04-08T01:29:30.252Z,100807.34
2023-04-08T01:32:07.954Z,100813.50
2023-04-08T01:34:37.819Z,100813.56
2023-04-08T01:37:06.471Z,100817.03
2023-04-08T01:39:35.689Z,100809.25
2023-04-08T01:42:04.881Z,100811.91
2023-04-08T01:44:33.675Z,100812.06
2023-04-08T01:47:15.729Z,100809.59
2023-04-08T01:50:01.919Z,100801.97
2023-04-08T01:52:34.949Z,100808.09
2023-04-08T01:55:03.235Z,100798.53
2023-04-08T01:57:33.909Z,100807.22
2023-04-08T02:00:03.247Z,100804.66
2023-04-08T02:02:37.090Z,100810.88
2023-04-08T02:05:05.471Z,100808.41
2023-04-08T02:07:32.441Z,100808.50
2023-04-08T02:09:59.015Z,100817.25
2023-04-08T02:12:28.315Z,100786.94
2023-04-08T02:14:55.606Z,100814.84
2023-04-08T02:17:37.387Z,100824.50
2023-04-08T02:20:14.144Z,100825.44
2023-04-08T02:22:46.266Z,100808.19
2023-04-08T02:25:17.396Z,100809.06
2023-04-08T02:27:46.215Z,100823.00
2023-04-08T02:30:18.491Z,100806.44
2023-04-08T02:32:48.768Z,100830.69
2023-04-08T02:35:20.273Z,100804.03
2023-04-08T02:37:54.555Z,100748.72
2023-04-08T02:40:25.620Z,100830.13
2023-04-08T02:42:55.002Z,100832.84
2023-04-08T02:45:27.455Z,100830.25
2023-04-08T02:47:57.816Z,100840.06
2023-04-08T02:50:37.825Z,100841.16
2023-04-08T02:53:05.952Z,100831.72
2023-04-08T02:55:33.536Z,100830.97
2023-04-08T02:58:00.186Z,100842.28
2023-04-08T03:00:27.479Z,100838.81
2023-04-08T03:02:59.674Z,100831.00
2023-04-08T03:05:26.912Z,100843.19
2023-04-08T03:07:53.641Z,100842.31
2023-04-08T03:10:24.642Z,100843.22
2023-04-08T03:12:55.013Z,100845.88
2023-04-08T03:15:21.796Z,100825.97
2023-04-08T03:17:48.646Z,100820.06
2023-04-08T03:20:15.439Z,100843.44
2023-04-08T03:22:42.359Z,100838.28
2023-04-08T03:25:09.788Z,100839.16
2023-04-08T03:27:36.646Z,100810.56
2023-04-08T03:30:03.991Z,100806.28
2023-04-08T03:32:30.861Z,100839.25
2023-04-08T03:34:58.379Z,100790.81
2023-04-08T03:37:25.780Z,100855.81
2023-04-08T03:39:56.009Z,100821.16
2023-04-08T03:42:25.403Z,100858.44
2023-04-08T03:44:52.027Z,100849.81
2023-04-08T03:47:21.553Z,100855.00
2023-04-08T03:49:48.444Z,100846.38
2023-04-08T03:52:17.301Z,100861.94
2023-04-08T03:54:45.107Z,100852.38
2023-04-08T03:57:12.430Z,100836.88
2023-04-08T03:59:42.232Z,100853.38
2023-04-08T04:02:09.048Z,100850.84
2023-04-08T04:04:37.124Z,100861.31
2023-04-08T04:07:05.883Z,100855.31
2023-04-08T04:09:32.777Z,100841.47
2023-04-08T04:12:02.098Z,100858.84
2023-04-08T04:14:29.551Z,100868.47
2023-04-08T04:16:56.397Z,100872.84
2023-04-08T04:19:23.520Z,100857.22
2023-04-08T04:21:52.852Z,100873.63
2023-04-08T04:24:19.652Z,100853.81
2023-04-08T04:26:47.025Z,100860.72
2023-04-08T04:29:14.086Z,100871.16
2023-04-08T04:31:44.737Z,100866.81
2023-04-08T04:34:11.670Z,100870.25
2023-04-08T04:36:38.188Z,100876.34
2023-04-08T04:39:04.943Z,100877.25
2023-04-08T04:41:31.713Z,100843.50
2023-04-08T04:43:59.227Z,100783.81
2023-04-08T04:46:28.934Z,100834.16
2023-04-08T04:48:57.751Z,100876.66
2023-04-08T04:51:26.585Z,100876.72
2023-04-08T04:53:53.519Z,100851.75
2023-04-08T04:56:21.938Z,100883.88
2023-04-08T04:58:51.681Z,100872.63
2023-04-08T05:01:22.114Z,100888.28
2023-04-08T05:03:49.772Z,100876.03
2023-04-08T05:06:19.187Z,100880.44
2023-04-08T05:08:45.874Z,100896.97
2023-04-08T05:11:13.583Z,100897.84
2023-04-08T05:13:45.405Z,100894.38
2023-04-08T05:16:15.260Z,100890.97
2023-04-08T05:18:41.916Z,100897.97
2023-04-08T05:21:12.218Z,100878.13
2023-04-08T05:23:48.446Z,100896.31
2023-04-08T05:26:21.634Z,100897.25
2023-04-08T05:28:49.943Z,100875.56
2023-04-08T05:31:38.895Z,100829.66
2023-04-08T05:34:09.308Z,100916.34
2023-04-08T05:36:41.368Z,100870.34
2023-04-08T05:39:09.605Z,100891.94
2023-04-08T05:41:41.683Z,100910.88
2023-04-08T05:44:12.488Z,100870.00
2023-04-08T05:46:38.995Z,100902.16
2023-04-08T05:49:05.566Z,100915.91
2023-04-08T05:51:33.551Z,100914.13
2023-04-08T05:54:00.621Z,100910.56
2023-04-08T05:56:35.542Z,100912.19
2023-04-08T05:59:03.328Z,100922.53
2023-04-08T06:01:41.910Z,100925.94
2023-04-08T06:04:09.329Z,100935.41
2023-04-08T06:09:21.758Z,100944.66
2023-04-08T06:11:50.744Z,100939.22
2023-04-08T06:14:22.881Z,100910.56
2023-04-08T06:16:51.211Z,100921.66
2023-04-08T06:19:21.613Z,100941.44
2023-04-08T06:21:52.476Z,100948.97
2023-04-08T06:24:20.550Z,100889.00
2023-04-08T06:26:50.009Z,100853.22
2023-04-08T06:29:19.298Z,100938.91
2023-04-08T06:31:46.252Z,100961.56
2023-04-08T06:34:13.005Z,100895.56
2023-04-08T06:36:40.217Z,100950.97
2023-04-08T06:41:45.857Z,100918.63
2023-04-08T06:44:12.838Z,100965.28
2023-04-08T06:46:39.390Z,100927.91
2023-04-08T06:49:07.453Z,100949.50
2023-04-08T06:51:36.240Z,100974.56
2023-04-08T06:54:06.374Z,100929.50
2023-04-08T06:56:32.964Z,100985.69
2023-04-08T06:59:00.338Z,100969.19
2023-04-08T07:01:28.934Z,100959.75
2023-04-08T07:04:01.407Z,100991.81
2023-04-08T07:06:34.712Z,100979.69
2023-04-08T07:09:08.230Z,100988.88
2023-04-08T07:11:37.220Z,100987.66
2023-04-08T07:14:03.901Z,100999.53
2023-04-08T07:16:30.821Z,100993.00
2023-04-08T07:18:58.455Z,100978.97
2023-04-08T07:21:27.078Z,101005.59
2023-04-08T07:23:54.342Z,100992.97
2023-04-08T07:26:22.679Z,100998.69
2023-04-08T07:28:49.872Z,100965.25
2023-04-08T07:31:18.761Z,100996.72
2023-04-08T07:33:47.106Z,101003.28
2023-04-08T07:36:17.202Z,100998.47
2023-04-08T07:38:43.964Z,100996.22
2023-04-08T07:41:12.785Z,101005.56
2023-04-08T07:43:41.210Z,101007.06
2023-04-08T07:46:09.290Z,100991.00
2023-04-08T07:51:20.965Z,100991.38
2023-04-08T07:53:47.827Z,101013.25
2023-04-08T07:56:15.931Z,100997.13
2023-04-08T08:01:29.034Z,101011.31
2023-04-08T08:04:09.561Z,101019.22
2023-04-08T08:06:38.828Z,101016.78
2023-04-08T08:09:07.964Z,101018.53
2023-04-08T08:11:39.803Z,101021.72
2023-04-08T08:14:06.624Z,101046.00
2023-04-08T08:16:41.121Z,101040.06
2023-04-08T08:19:15.813Z,101049.94
2023-04-08T08:21:44.020Z,101043.81
2023-04-08T08:24:12.881Z,101048.19
2023-04-08T08:26:41.969Z,101049.34
2023-04-08T08:32:23.897Z,101060.03
2023-04-08T08:34:54.689Z,101062.81
2023-04-08T08:38:03.529Z,100965.94
2023-04-08T08:40:38.931Z,101020.09
2023-04-08T08:43:44.088Z,101067.81
2023-04-08T08:49:01.211Z,101053.47
2023-04-08T08:51:30.220Z,100977.38
2023-04-08T08:53:58.019Z,101057.19
2023-04-08T08:56:24.889Z,101081.59
2023-04-08T08:58:51.753Z,101091.22
2023-04-08T09:05:15.193Z,101037.97
2023-04-08T09:07:47.810Z,101052.25
2023-04-08T09:10:17.394Z,101096.09
2023-04-08T09:13:01.576Z,101042.25
2023-04-08T09:15:28.708Z,101054.16
2023-04-08T09:21:00.182Z,101073.59
2023-04-08T09:23:53.968Z,101091.38
2023-04-08T09:26:30.182Z,101083.25
2023-04-08T09:29:26.436Z,101015.34
2023-04-08T09:32:04.673Z,101084.22
2023-04-08T09:34:38.872Z,101100.47
2023-04-08T09:37:15.185Z,101089.41
2023-04-08T09:39:41.953Z,101099.75
2023-04-08T09:42:14.250Z,101101.38
2023-04-08T09:44:48.253Z,101099.72
2023-04-08T09:47:29.491Z,101076.81
2023-04-08T09:53:03.634Z,101068.59
2023-04-08T09:55:34.461Z,101077.78
2023-04-08T09:58:12.019Z,101054.72
2023-04-08T10:00:46.471Z,101084.41
2023-04-08T10:03:43.037Z,101091.09
2023-04-08T10:06:12.469Z,101081.63
2023-04-08T10:08:40.165Z,101098.28
2023-04-08T10:11:07.459Z,101084.22
2023-04-08T10:13:41.275Z,101053.59
2023-04-08T10:16:38.650Z,101074.38
2023-04-08T10:19:45.046Z,101090.28
2023-04-08T10:22:34.064Z,101091.69
2023-04-08T10:25:17.106Z,101086.50
2023-04-08T10:27:48.808Z,101091.75
2023-04-08T10:30:35.640Z,101086.44
2023-04-08T10:33:07.403Z,101084.97
2023-04-08T10:35:43.039Z,101072.75
2023-04-08T10:38:13.018Z,101034.13
2023-04-08T10:40:46.102Z,101080.00
2023-04-08T10:43:22.555Z,101064.09
2023-04-08T10:46:00.485Z,101065.19
2023-04-08T10:48:29.478Z,101085.69
2023-04-08T10:51:03.360Z,101047.94
2023-04-08T10:53:42.029Z,101031.69
2023-04-08T10:56:09.916Z,101084.19
2023-04-08T10:58:47.548Z,101077.31
2023-04-08T11:01:15.635Z,101014.09
2023-04-08T11:03:58.326Z,101073.31
2023-04-08T11:06:33.195Z,101069.28
2023-04-08T11:09:05.025Z,100983.94
2023-04-08T11:11:35.402Z,101074.59
2023-04-08T11:14:02.625Z,101040.84
2023-04-08T11:16:33.178Z,101037.81
2023-04-08T11:21:41.274Z,101064.34
2023-04-08T11:24:15.046Z,101072.28
2023-04-08T11:26:54.223Z,101038.50
2023-04-08T11:29:23.435Z,101059.91
2023-04-08T11:31:53.739Z,101038.69
2023-04-08T11:34:29.145Z,101037.56
2023-04-08T11:37:08.775Z,101023.91
2023-04-08T11:39:46.720Z,101038.63
2023-04-08T11:45:20.135Z,101063.25
2023-04-08T11:47:53.300Z,101075.28
2023-04-08T11:50:27.576Z,101082.06
2023-04-08T11:52:55.532Z,101078.34
2023-04-08T11:55:30.430Z,101075.84
2023-04-08T11:58:03.152Z,101045.06
2023-04-08T12:00:40.849Z,101078.13
2023-04-08T12:03:11.652Z,101063.03
2023-04-08T12:05:42.172Z,101084.81
2023-04-08T12:08:10.062Z,101079.03
2023-04-08T12:10:38.552Z,101066.69
2023-04-08T12:13:08.341Z,101075.72
2023-04-08T12:15:35.625Z,101079.13
2023-04-08T12:18:02.708Z,101069.63
2023-04-08T12:20:32.574Z,101053.00
2023-04-08T12:22:59.830Z,101048.38
2023-04-08T12:25:30.037Z,101066.28
2023-04-08T12:27:59.672Z,101053.72
2023-04-08T12:30:29.465Z,101033.13
2023-04-08T12:33:09.694Z,101084.41
2023-04-08T12:35:37.485Z,101077.53
2023-04-08T12:38:05.150Z,101025.38
2023-04-08T12:40:32.093Z,101059.00
2023-04-08T12:43:12.682Z,101061.13
2023-04-08T12:45:39.686Z,101050.13
2023-04-08T12:48:22.474Z,101045.97
2023-04-08T12:50:51.025Z,101048.53
2023-04-08T12:53:17.873Z,101052.25
2023-04-08T12:55:45.071Z,101029.00
2023-04-08T12:58:11.827Z,101054.72
2023-04-08T13:00:43.684Z,100967.13
2023-04-08T13:03:10.644Z,101055.97
2023-04-08T13:05:43.120Z,101051.78
2023-04-08T13:08:12.529Z,101057.44
2023-04-08T13:10:43.726Z,101056.38
2023-04-08T13:15:58.581Z,101063.81
2023-04-08T13:18:28.235Z,101060.81
2023-04-08T13:21:01.086Z,101038.03
2023-04-08T13:23:28.727Z,101062.97
2023-04-08T13:26:01.164Z,101058.78
2023-04-08T13:28:27.827Z,101061.84
2023-04-08T13:30:56.639Z,101044.38
2023-04-08T13:33:23.339Z,101075.13
2023-04-08T13:35:53.054Z,101061.53
2023-04-08T13:38:27.390Z,101069.84
2023-04-08T13:40:59.869Z,101041.50
2023-04-08T13:43:33.428Z,101048.47
2023-04-08T13:46:02.459Z,101058.63
2023-04-08T13:48:31.140Z,101044.41
2023-04-08T13:50:57.983Z,101024.63
2023-04-08T13:53:25.906Z,101073.69
2023-04-08T13:55:56.442Z,101046.81
2023-04-08T13:58:24.791Z,101073.56
2023-04-08T14:01:02.171Z,101062.69
2023-04-08T14:03:33.236Z,101039.78
2023-04-08T14:06:06.746Z,101034.13
2023-04-08T14:08:39.574Z,101063.81
2023-04-08T14:11:29.809Z,101065.47
2023-04-08T14:14:06.757Z,101075.41
2023-04-08T14:16:42.325Z,101077.28
2023-04-08T14:19:18.163Z,101080.06
2023-04-08T14:21:51.274Z,101035.13
2023-04-08T14:24:18.432Z,101036.78
2023-04-08T14:26:56.593Z,101071.50
2023-04-08T14:29:26.461Z,101068.81
2023-04-08T14:31:53.765Z,101058.44
2023-04-08T14:34:22.694Z,101066.63
2023-04-08T14:36:49.915Z,101066.41
2023-04-08T14:39:17.535Z,101029.25
2023-04-08T14:41:51.899Z,101071.53
2023-04-08T14:44:20.263Z,101048.06
2023-04-08T14:46:50.601Z,101056.47
2023-04-08T14:49:26.929Z,101066.56
2023-04-08T14:51:54.703Z,101068.16
2023-04-08T14:54:25.139Z,101064.72
2023-04-08T14:56:51.895Z,101069.66
2023-04-08T14:59:20.511Z,101061.53
2023-04-08T15:01:49.114Z,101049.91
2023-04-08T15:04:16.111Z,101020.38
2023-04-08T15:06:44.554Z,101068.94
2023-04-08T15:09:12.400Z,101066.78
2023-04-08T15:11:44.983Z,101044.56
2023-04-08T15:14:16.962Z,101033.78
2023-04-08T15:16:44.667Z,101057.47
2023-04-08T15:19:12.470Z,101017.78
2023-04-08T15:21:41.991Z,101014.94
2023-04-08T15:24:11.566Z,101060.66
2023-04-08T15:26:41.373Z,101060.19
2023-04-08T15:29:15.953Z,101020.00
2023-04-08T15:31:45.581Z,101055.91
2023-04-08T15:34:12.715Z,101054.44
2023-04-08T15:36:41.229Z,100996.38
2023-04-08T15:39:08.504Z,101005.84
2023-04-08T15:41:35.280Z,101063.97
2023-04-08T15:44:04.985Z,101031.34
2023-04-08T15:46:37.463Z,100984.53
2023-04-08T15:49:06.599Z,101064.31
2023-04-08T15:52:21.370Z,100975.66
2023-04-08T15:55:16.891Z,101040.38
2023-04-08T15:57:44.441Z,100981.09
2023-04-08T16:00:16.587Z,101063.47
2023-04-08T16:02:43.757Z,101021.59
2023-04-08T16:05:14.011Z,101080.66
2023-04-08T16:10:33.747Z,101030.66
2023-04-08T16:13:01.476Z,101057.63
2023-04-08T16:15:51.397Z,101078.66
2023-04-08T16:18:21.745Z,101041.47
2023-04-08T16:21:04.087Z,101085.16
2023-04-08T16:23:42.177Z,101055.16
2023-04-08T16:26:12.493Z,101055.47
2023-04-08T16:28:57.817Z,101054.69
2023-04-08T16:34:35.343Z,101093.41
2023-04-08T16:37:05.503Z,101083.06
2023-04-08T16:42:13.418Z,101095.47
2023-04-08T16:47:48.351Z,101020.69
2023-04-08T16:53:07.134Z,101102.03
2023-04-08T16:55:50.030Z,101106.69
2023-04-08T16:58:44.524Z,101088.78
2023-04-08T17:01:17.340Z,101119.19
2023-04-08T17:03:58.414Z,101122.06
2023-04-08T17:06:25.286Z,101118.75
2023-04-08T17:08:54.458Z,101121.50
2023-04-08T17:11:25.580Z,101104.22
2023-04-08T17:16:49.724Z,101113.03
2023-04-08T17:25:14.073Z,101140.53
2023-04-08T17:27:53.951Z,101145.09
2023-04-08T17:30:28.107Z,101106.19
2023-04-08T17:32:59.082Z,101142.66
2023-04-08T17:35:37.521Z,101089.34
2023-04-08T17:38:14.088Z,101135.38
2023-04-08T17:40:46.206Z,101135.28
2023-04-08T17:43:23.704Z,101089.00
2023-04-08T17:45:59.053Z,101141.22
2023-04-08T17:48:27.297Z,101156.91
2023-04-08T17:51:04.271Z,101153.56
2023-04-08T17:53:36.375Z,101149.22
2023-04-08T17:56:07.181Z,101133.19
2023-04-08T17:58:38.162Z,101165.47
2023-04-08T18:01:16.261Z,101084.19
2023-04-08T18:06:29.835Z,101132.81
2023-04-08T18:09:01.662Z,101173.78
2023-04-08T18:11:28.888Z,101124.44
2023-04-08T18:13:57.767Z,101121.13
2023-04-08T18:16:30.496Z,101172.16
2023-04-08T18:19:00.475Z,101163.75
2023-04-08T18:24:34.517Z,101127.56
2023-04-08T18:29:47.857Z,101134.81
2023-04-08T18:38:41.261Z,101207.38
2023-04-08T18:44:12.392Z,101188.44
2023-04-08T18:47:31.318Z,101199.84
2023-04-08T18:49:59.237Z,101168.25
2023-04-08T18:55:12.155Z,101164.91
2023-04-08T18:57:59.538Z,101222.16
2023-04-08T19:00:36.838Z,101169.34
2023-04-08T19:03:05.864Z,101221.31
2023-04-08T19:05:53.251Z,101220.59
2023-04-08T19:08:26.386Z,101223.50
2023-04-08T19:11:01.545Z,101231.47
2023-04-08T19:13:28.428Z,101182.25
2023-04-08T19:16:16.573Z,101211.75
2023-04-08T19:18:49.345Z,101230.81
2023-04-08T19:21:23.023Z,101234.50
2023-04-08T19:23:56.460Z,101137.44
2023-04-08T19:26:28.250Z,101191.31
2023-04-08T19:28:59.464Z,101242.69
2023-04-08T19:31:29.730Z,101242.78
2023-04-08T19:33:56.690Z,101189.25
2023-04-08T19:36:27.221Z,101242.16
2023-04-08T19:38:55.713Z,101244.78
2023-04-08T19:41:24.008Z,101248.38
2023-04-08T19:43:53.576Z,101190.25
2023-04-08T19:46:23.665Z,101237.19
2023-04-08T19:48:50.844Z,101239.75
2023-04-08T19:51:20.369Z,101239.94
2023-04-08T19:53:51.959Z,101193.44
2023-04-08T19:56:18.695Z,101238.72
2023-04-08T19:58:51.509Z,101257.91
2023-04-08T20:01:23.035Z,101240.81
2023-04-08T20:03:54.559Z,101260.69
2023-04-08T20:06:26.702Z,101268.78
2023-04-08T20:09:05.779Z,101172.75
2023-04-08T20:11:34.069Z,101261.13
2023-04-08T20:14:05.752Z,101163.22
2023-04-08T20:16:38.456Z,101263.09
2023-04-08T20:19:05.165Z,101225.78
2023-04-08T20:21:35.453Z,101264.09
2023-04-08T20:24:03.180Z,101220.91
2023-04-08T20:26:34.775Z,101268.00
2023-04-08T20:29:12.609Z,101253.25
2023-04-08T20:31:41.900Z,101235.94
2023-04-08T20:34:20.402Z,101270.81
2023-04-08T20:36:48.786Z,101213.66
2023-04-08T20:39:20.246Z,101273.75
2023-04-08T20:41:57.648Z,101189.53
2023-04-08T20:44:26.005Z,101265.06
2023-04-08T20:47:02.104Z,101208.66
2023-04-08T20:49:36.554Z,101178.38
2023-04-08T20:52:06.986Z,101227.13
2023-04-08T20:54:39.202Z,101279.28
2023-04-08T20:57:08.391Z,101244.53
2023-04-08T20:59:35.054Z,101244.56
2023-04-08T21:02:05.003Z,101275.06
2023-04-08T21:04:34.847Z,101272.34
2023-04-08T21:07:04.443Z,101181.16
2023-04-08T21:09:31.323Z,101283.69
2023-04-08T21:11:58.363Z,101253.25
2023-04-08T21:14:26.413Z,101281.19
2023-04-08T21:16:55.334Z,101272.34
2023-04-08T21:19:25.624Z,101232.78
2023-04-08T21:21:53.441Z,101173.72
2023-04-08T21:24:23.953Z,101225.84
2023-04-08T21:26:53.818Z,101220.56
2023-04-08T21:29:21.209Z,101278.69
2023-04-08T21:31:51.137Z,101199.75
2023-04-08T21:34:18.514Z,101279.75
2023-04-08T21:36:45.184Z,101282.47
2023-04-08T21:39:12.109Z,101283.41
2023-04-08T21:41:43.449Z,101279.03
2023-04-08T21:44:12.871Z,101275.56
2023-04-08T21:46:41.761Z,101279.09
2023-04-08T21:49:11.618Z,101258.34
2023-04-08T21:54:20.440Z,101284.47
2023-04-08T21:56:47.828Z,101201.97
2023-04-08T21:59:19.722Z,101269.50
2023-04-08T22:01:47.461Z,101269.63
2023-04-08T22:04:14.591Z,101242.81
2023-04-08T22:06:46.461Z,101228.94
2023-04-08T22:09:15.183Z,101219.25
2023-04-08T22:11:46.303Z,101260.28
2023-04-08T22:14:14.270Z,101230.75
2023-04-08T22:16:43.737Z,101284.59
2023-04-08T22:19:11.235Z,101278.38
2023-04-08T22:21:45.234Z,101239.41
2023-04-08T22:24:12.553Z,101235.13
2023-04-08T22:26:40.352Z,101258.44
2023-04-08T22:29:10.450Z,101208.03
2023-04-08T22:31:47.802Z,101228.81
2023-04-08T22:34:14.930Z,101192.63
2023-04-08T22:36:42.430Z,101216.81
2023-04-08T22:39:09.381Z,101223.00
2023-04-08T22:41:37.121Z,101273.22
2023-04-08T22:44:05.661Z,101251.66
2023-04-08T22:46:33.712Z,101235.81
2023-04-08T22:49:00.751Z,101244.59
2023-04-08T22:51:27.332Z,101247.06
2023-04-08T22:53:54.948Z,101279.22
2023-04-08T22:56:23.258Z,101252.28
2023-04-08T22:58:51.181Z,101251.56
2023-04-08T23:01:20.965Z,101245.44
2023-04-08T23:03:47.926Z,101277.63
2023-04-08T23:06:23.292Z,101271.50
2023-04-08T23:08:55.314Z,101224.78
2023-04-08T23:11:24.107Z,101256.94
2023-04-08T23:13:51.093Z,101247.28
2023-04-08T23:16:19.366Z,101240.56
2023-04-08T23:18:48.051Z,101277.03
2023-04-08T23:21:14.924Z,101185.91
2023-04-08T23:23:43.464Z,101244.97
2023-04-08T23:26:23.030Z,101225.13
2023-04-08T23:28:53.826Z,101256.31
2023-04-08T23:31:25.577Z,101238.97
2023-04-08T23:33:55.903Z,101223.50
2023-04-08T23:36:24.695Z,101215.66
2023-04-08T23:38:51.934Z,101223.53
2023-04-08T23:41:21.509Z,101280.00
2023-04-08T23:43:51.402Z,101268.81
2023-04-08T23:46:22.158Z,101268.81
2023-04-08T23:48:49.013Z,101283.56
2023-04-08T23:51:17.296Z,101261.84
2023-04-08T23:53:48.247Z,101237.66
2023-04-08T23:56:15.905Z,101249.03
2023-04-08T23:58:48.510Z,101183.94
